createdAt,value
2018-12-09T00:00:26.434Z,98484.34
2018-12-09T00:02:54.584Z,98499.03
2018-12-09T00:05:22.817Z,98510.22
2018-12-09T00:07:51.000Z,98514.33
2018-12-09T00:10:19.233Z,98495.72
2018-12-09T00:12:47.392Z,98502.61
2018-12-09T00:15:15.529Z,98502.38
2018-12-09T00:17:43.676Z,98500.38
2018-12-09T00:20:11.900Z,98503.47
2018-12-09T00:22:40.052Z,98489.42
2018-12-09T00:25:08.276Z,98507.08
2018-12-09T00:27:36.493Z,98476.86
2018-12-09T00:30:05.225Z,98484.02
2018-12-09T00:32:33.368Z,98473.39
2018-12-09T00:35:01.612Z,98492.77
2018-12-09T00:37:29.756Z,98493.37
2018-12-09T00:39:57.910Z,98513.48
2018-12-09T00:42:26.053Z,98539.27
2018-12-09T00:44:54.204Z,98563.53
2018-12-09T00:47:22.348Z,98615.67
2018-12-09T00:49:50.598Z,98607.41
2018-12-09T00:52:18.816Z,98577.03
2018-12-09T00:54:46.972Z,98586.66
2018-12-09T00:57:15.112Z,98583.98
2018-12-09T00:59:43.268Z,98578.05
2018-12-09T01:02:11.488Z,98545.53
2018-12-09T01:04:39.729Z,98557.03
2018-12-09T01:07:09.242Z,98551.66
2018-12-09T01:09:37.424Z,98549.62
2018-12-09T01:12:05.648Z,98564.22
2018-12-09T01:14:33.804Z,98559.87
2018-12-09T01:17:01.948Z,98550.67
2018-12-09T01:19:30.101Z,98557.86
2018-12-09T01:21:58.325Z,98539.04
2018-12-09T01:24:26.560Z,98549.06
2018-12-09T01:26:54.704Z,98549.47
2018-12-09T01:29:23.244Z,98545.33
2018-12-09T01:31:51.580Z,98517.39
2018-12-09T01:34:20.315Z,98545.52
2018-12-09T01:36:48.557Z,98538.00
2018-12-09T01:39:16.701Z,98542.12
2018-12-09T01:41:44.852Z,98521.44
2018-12-09T01:44:13.077Z,98526.56
2018-12-09T01:46:41.384Z,98525.22
2018-12-09T01:49:09.612Z,98513.30
2018-12-09T01:51:37.768Z,98528.70
2018-12-09T01:54:10.428Z,98534.62
2018-12-09T01:56:39.173Z,98522.31
2018-12-09T01:59:07.407Z,98524.31
2018-12-09T02:01:35.560Z,98526.17
2018-12-09T02:04:03.787Z,98520.14
2018-12-09T02:06:32.425Z,98508.44
2018-12-09T02:09:00.652Z,98523.24
2018-12-09T02:11:28.892Z,98490.48
2018-12-09T02:13:57.029Z,98499.98
2018-12-09T02:16:25.276Z,98506.75
2018-12-09T02:19:27.400Z,98501.11
2018-12-09T02:21:55.820Z,98496.77
2018-12-09T02:24:24.148Z,98507.51
2018-12-09T02:26:52.391Z,98499.00
2018-12-09T02:29:20.720Z,98517.38
2018-12-09T02:31:48.871Z,98494.17
2018-12-09T02:34:17.112Z,98519.94
2018-12-09T02:36:45.457Z,98557.52
2018-12-09T02:39:14.109Z,98530.41
2018-12-09T02:41:42.346Z,98523.39
2018-12-09T02:44:10.569Z,98561.19
2018-12-09T02:46:38.723Z,98529.86
2018-12-09T02:49:06.953Z,98539.70
2018-12-09T02:51:35.361Z,98529.79
2018-12-09T02:54:03.667Z,98534.44
2018-12-09T02:56:31.926Z,98540.78
2018-12-09T02:59:00.250Z,98540.52
2018-12-09T03:01:28.689Z,98545.70
2018-12-09T03:03:57.004Z,98555.80
2018-12-09T03:06:25.326Z,98535.06
2018-12-09T03:08:53.884Z,98538.61
2018-12-09T03:11:22.108Z,98538.61
2018-12-09T03:13:50.264Z,98547.88
2018-12-09T03:16:18.541Z,98534.33
2018-12-09T03:18:46.695Z,98529.50
2018-12-09T03:21:14.928Z,98537.40
2018-12-09T03:23:43.086Z,98512.59
2018-12-09T03:26:11.417Z,98519.30
2018-12-09T03:28:39.655Z,98529.34
2018-12-09T03:31:07.903Z,98539.48
2018-12-09T03:33:36.239Z,98555.14
2018-12-09T03:36:04.565Z,98551.83
2018-12-09T03:38:32.716Z,98563.66
2018-12-09T03:41:00.856Z,98555.53
2018-12-09T03:43:29.608Z,98564.15
2018-12-09T03:45:57.748Z,98550.98
2018-12-09T03:48:25.984Z,98548.38
2018-12-09T03:50:55.153Z,98560.83
2018-12-09T03:53:23.305Z,98561.16
2018-12-09T03:55:51.637Z,98559.53
2018-12-09T03:58:19.883Z,98567.01
2018-12-09T04:00:48.029Z,98567.97
2018-12-09T04:03:16.466Z,98566.23
2018-12-09T04:05:44.815Z,98565.47
2018-12-09T04:08:13.056Z,98572.73
2018-12-09T04:10:41.380Z,98574.47
2018-12-09T04:13:09.528Z,98566.13
2018-12-09T04:15:42.373Z,98575.14
2018-12-09T04:18:10.915Z,98577.95
2018-12-09T04:20:39.070Z,98575.52
2018-12-09T04:23:07.384Z,98575.73
2018-12-09T04:25:35.535Z,98575.63
2018-12-09T04:28:03.885Z,98566.30
2018-12-09T04:30:32.116Z,98573.56
2018-12-09T04:33:00.265Z,98560.02
2018-12-09T04:35:28.525Z,98550.53
2018-12-09T04:37:56.770Z,98557.72
2018-12-09T04:40:25.299Z,98561.16
2018-12-09T04:42:53.461Z,98567.44
2018-12-09T04:45:21.696Z,98567.92
2018-12-09T04:47:49.928Z,98555.39
2018-12-09T04:50:18.256Z,98559.64
2018-12-09T04:52:46.984Z,98564.78
2018-12-09T04:55:15.237Z,98573.66
2018-12-09T04:57:43.636Z,98567.70
2018-12-09T05:01:24.189Z,98578.91
2018-12-09T05:03:52.540Z,98575.33
2018-12-09T05:06:20.693Z,98579.45
2018-12-09T05:08:48.851Z,98583.55
2018-12-09T05:11:17.095Z,98579.16
2018-12-09T05:13:45.332Z,98576.09
2018-12-09T05:16:13.489Z,98565.52
2018-12-09T05:18:41.636Z,98588.55
2018-12-09T05:21:09.793Z,98610.09
2018-12-09T05:23:38.028Z,98618.00
2018-12-09T05:26:06.180Z,98623.91
2018-12-09T05:28:34.723Z,98623.05
2018-12-09T05:31:02.883Z,98622.17
2018-12-09T05:33:31.118Z,98633.50
2018-12-09T05:35:59.455Z,98634.83
2018-12-09T05:38:27.600Z,98656.58
2018-12-09T05:40:56.316Z,98647.93
2018-12-09T05:43:24.458Z,98636.55
2018-12-09T05:45:52.604Z,98642.55
2018-12-09T05:48:20.744Z,98636.79
2018-12-09T05:50:49.000Z,98639.98
2018-12-09T05:53:17.432Z,98650.92
2018-12-09T05:55:45.578Z,98651.41
2018-12-09T05:58:13.733Z,98661.75
2018-12-09T06:00:41.873Z,98666.20
2018-12-09T06:03:10.197Z,98661.52
2018-12-09T06:05:38.740Z,98671.75
2018-12-09T06:08:07.018Z,98663.14
2018-12-09T06:10:35.263Z,98683.94
2018-12-09T06:13:03.578Z,98691.69
2018-12-09T06:15:31.755Z,98687.73
2018-12-09T06:18:00.032Z,98676.06
2018-12-09T06:20:28.192Z,98688.35
2018-12-09T06:22:56.384Z,98694.19
2018-12-09T06:25:24.537Z,98693.27
2018-12-09T06:27:52.878Z,98695.73
2018-12-09T06:30:21.188Z,98706.28
2018-12-09T06:32:49.338Z,98705.52
2018-12-09T06:35:17.580Z,98705.42
2018-12-09T06:37:45.741Z,98709.38
2018-12-09T06:40:14.073Z,98717.39
2018-12-09T06:42:42.314Z,98710.77
2018-12-09T06:45:10.737Z,98714.63
2018-12-09T06:47:38.977Z,98706.13
2018-12-09T06:50:09.508Z,98711.58
2018-12-09T06:52:37.657Z,98708.97
2018-12-09T06:55:07.285Z,98716.12
2018-12-09T06:57:35.520Z,98732.27
2018-12-09T07:00:04.664Z,98724.15
2018-12-09T07:02:32.828Z,98720.67
2018-12-09T07:05:00.976Z,98731.50
2018-12-09T07:07:29.289Z,98737.79
2018-12-09T07:09:57.564Z,98748.14
2018-12-09T07:12:25.988Z,98734.01
2018-12-09T07:14:54.203Z,98727.14
2018-12-09T07:17:22.344Z,98730.86
2018-12-09T07:19:50.541Z,98740.92
2018-12-09T07:22:18.817Z,98753.25
2018-12-09T07:24:47.001Z,98763.08
2018-12-09T07:27:15.164Z,98756.31
2018-12-09T07:29:43.328Z,98767.14
2018-12-09T07:32:11.600Z,98766.27
2018-12-09T07:34:39.788Z,98773.81
2018-12-09T07:37:08.017Z,98777.67
2018-12-09T07:39:36.355Z,98793.33
2018-12-09T07:42:04.580Z,98789.52
2018-12-09T07:44:32.737Z,98796.39
2018-12-09T07:47:00.868Z,98783.62
2018-12-09T07:49:29.060Z,98791.26
2018-12-09T07:51:57.204Z,98796.67
2018-12-09T07:54:25.408Z,98811.47
2018-12-09T07:56:53.549Z,98795.32
2018-12-09T07:59:21.697Z,98796.58
2018-12-09T08:01:49.930Z,98813.98
2018-12-09T08:04:18.108Z,98817.91
2018-12-09T08:06:46.406Z,98829.13
2018-12-09T08:09:14.673Z,98823.71
2018-12-09T08:11:42.921Z,98834.55
2018-12-09T08:14:11.105Z,98834.44
2018-12-09T08:16:39.312Z,98833.38
2018-12-09T08:19:07.730Z,98837.44
2018-12-09T08:21:35.951Z,98845.33
2018-12-09T08:24:04.200Z,98844.16
2018-12-09T08:26:32.517Z,98845.99
2018-12-09T08:29:00.673Z,98846.97
2018-12-09T08:31:28.848Z,98852.66
2018-12-09T08:33:57.020Z,98863.61
2018-12-09T08:36:25.286Z,98862.81
2018-12-09T08:38:53.429Z,98864.86
2018-12-09T08:41:21.576Z,98854.44
2018-12-09T08:43:49.720Z,98856.53
2018-12-09T08:46:17.869Z,98856.73
2018-12-09T08:48:46.013Z,98864.09
2018-12-09T08:51:14.252Z,98878.23
2018-12-09T08:53:42.392Z,98861.97
2018-12-09T08:56:10.776Z,98883.27
2018-12-09T08:58:38.935Z,98901.53
2018-12-09T09:01:07.268Z,98897.89
2018-12-09T09:03:35.421Z,98903.47
2018-12-09T09:06:03.673Z,98895.95
2018-12-09T09:08:31.817Z,98894.18
2018-12-09T09:11:00.073Z,98909.02
2018-12-09T09:13:28.215Z,98908.63
2018-12-09T09:15:56.356Z,98911.98
2018-12-09T09:18:24.505Z,98903.16
2018-12-09T09:20:52.736Z,98903.70
2018-12-09T09:23:21.069Z,98898.22
2018-12-09T09:25:49.589Z,98899.16
2018-12-09T09:28:17.858Z,98905.50
2018-12-09T09:30:46.129Z,98907.72
2018-12-09T09:33:14.325Z,98909.71
2018-12-09T09:35:42.642Z,98903.11
2018-12-09T09:38:10.868Z,98911.00
2018-12-09T09:40:39.148Z,98911.00
2018-12-09T09:43:07.420Z,98913.13
2018-12-09T09:45:35.690Z,98920.14
2018-12-09T09:48:03.932Z,98925.57
2018-12-09T09:50:32.086Z,98913.95
2018-12-09T09:53:00.344Z,98910.92
2018-12-09T09:55:28.496Z,98912.66
2018-12-09T09:57:56.676Z,98904.63
2018-12-09T10:00:24.841Z,98905.64
2018-12-09T10:02:53.145Z,98924.03
2018-12-09T10:05:21.301Z,98915.80
2018-12-09T10:07:49.477Z,98914.72
2018-12-09T10:10:17.677Z,98914.55
2018-12-09T10:12:45.884Z,98919.77
2018-12-09T10:15:14.193Z,98913.78
2018-12-09T10:17:42.380Z,98918.02
2018-12-09T10:20:10.881Z,98928.10
2018-12-09T10:22:39.024Z,98928.69
2018-12-09T10:25:07.432Z,98916.48
2018-12-09T10:27:35.689Z,98900.78
2018-12-09T10:30:04.211Z,98916.08
2018-12-09T10:32:32.349Z,98901.03
2018-12-09T10:35:00.524Z,98912.42
2018-12-09T10:37:28.732Z,98916.67
2018-12-09T10:39:56.892Z,98901.69
2018-12-09T10:42:25.076Z,98898.70
2018-12-09T10:44:53.232Z,98890.22
2018-12-09T10:47:21.372Z,98896.89
2018-12-09T10:49:49.576Z,98892.27
2018-12-09T10:52:17.788Z,98892.68
2018-12-09T10:54:45.945Z,98885.33
2018-12-09T10:57:14.220Z,98887.09
2018-12-09T10:59:42.557Z,98889.70
2018-12-09T11:02:15.996Z,98877.39
2018-12-09T11:04:44.152Z,98879.13
2018-12-09T11:07:12.293Z,98893.53
2018-12-09T11:09:40.533Z,98895.59
2018-12-09T11:12:08.844Z,98883.67
2018-12-09T11:14:36.995Z,98875.02
2018-12-09T11:17:05.136Z,98882.50
2018-12-09T11:19:33.313Z,98871.16
2018-12-09T11:22:01.586Z,98893.31
2018-12-09T11:24:29.769Z,98891.30
2018-12-09T11:26:57.940Z,98887.02
2018-12-09T11:29:26.116Z,98884.38
2018-12-09T11:31:54.381Z,98879.33
2018-12-09T11:34:22.524Z,98878.19
2018-12-09T11:36:50.848Z,98885.56
2018-12-09T11:39:18.992Z,98885.21
2018-12-09T11:41:47.197Z,98886.43
2018-12-09T11:44:15.360Z,98884.83
2018-12-09T11:46:43.965Z,98874.70
2018-12-09T11:49:12.216Z,98880.13
2018-12-09T11:51:40.620Z,98875.82
2018-12-09T11:54:08.874Z,98872.17
2018-12-09T11:56:37.068Z,98861.56
2018-12-09T11:59:05.445Z,98863.89
2018-12-09T12:01:33.726Z,98856.63
2018-12-09T12:04:01.880Z,98855.09
2018-12-09T12:06:30.192Z,98855.59
2018-12-09T12:08:58.336Z,98848.32
2018-12-09T12:11:26.637Z,98856.73
2018-12-09T12:13:54.940Z,98862.16
2018-12-09T12:16:23.092Z,98846.55
2018-12-09T12:18:51.416Z,98858.86
2018-12-09T12:21:19.622Z,98861.98
2018-12-09T12:23:47.788Z,98857.92
2018-12-09T12:26:16.174Z,98864.00
2018-12-09T12:28:44.456Z,98870.43
2018-12-09T12:31:12.758Z,98867.92
2018-12-09T12:33:41.020Z,98866.19
2018-12-09T12:36:09.208Z,98867.44
2018-12-09T12:38:37.478Z,98863.50
2018-12-09T12:41:05.721Z,98859.41
2018-12-09T12:43:33.885Z,98850.99
2018-12-09T12:46:02.203Z,98854.84
2018-12-09T12:48:30.449Z,98850.78
2018-12-09T12:50:58.644Z,98852.77
2018-12-09T12:53:26.945Z,98860.20
2018-12-09T12:55:55.100Z,98857.87
2018-12-09T12:58:23.252Z,98856.41
2018-12-09T13:00:51.648Z,98862.45
2018-12-09T13:03:19.801Z,98857.39
2018-12-09T13:05:48.184Z,98856.27
2018-12-09T13:08:16.679Z,98872.95
2018-12-09T13:10:44.896Z,98853.64
2018-12-09T13:13:13.162Z,98871.75
2018-12-09T13:15:41.438Z,98878.95
2018-12-09T13:18:09.814Z,98880.31
2018-12-09T13:20:37.968Z,98895.00
2018-12-09T13:23:06.248Z,98880.78
2018-12-09T13:25:34.424Z,98875.34
2018-12-09T13:28:02.666Z,98886.55
2018-12-09T13:30:30.984Z,98888.61
2018-12-09T13:32:59.152Z,98886.49
2018-12-09T13:35:27.324Z,98891.36
2018-12-09T13:37:55.672Z,98896.37
2018-12-09T13:40:23.900Z,98895.50
2018-12-09T13:42:52.132Z,98904.92
2018-12-09T13:45:20.457Z,98896.75
2018-12-09T13:47:48.885Z,98897.14
2018-12-09T13:50:17.133Z,98893.70
2018-12-09T13:52:45.278Z,98886.70
2018-12-09T13:55:13.668Z,98887.13
2018-12-09T13:57:41.812Z,98880.27
2018-12-09T14:00:12.876Z,98877.06
2018-12-09T14:02:41.070Z,98848.46
2018-12-09T14:05:09.440Z,98863.06
2018-12-09T14:07:37.588Z,98860.59
2018-12-09T14:10:06.024Z,98864.66
2018-12-09T14:12:34.169Z,98869.33
2018-12-09T14:15:02.354Z,98874.23
2018-12-09T14:17:30.625Z,98878.80
2018-12-09T14:19:58.794Z,98869.52
2018-12-09T14:22:26.956Z,98884.78
2018-12-09T14:24:55.147Z,98891.99
2018-12-09T14:27:23.454Z,98911.64
2018-12-09T14:29:51.689Z,98919.13
2018-12-09T14:32:20.144Z,98921.80
2018-12-09T14:34:48.376Z,98940.84
2018-12-09T14:37:16.621Z,98944.63
2018-12-09T14:39:45.213Z,98967.75
2018-12-09T14:42:13.484Z,98981.46
2018-12-09T14:44:41.656Z,98993.38
2018-12-09T14:47:09.804Z,99013.18
2018-12-09T14:49:38.170Z,99014.73
2018-12-09T14:52:06.417Z,99033.27
2018-12-09T14:54:34.656Z,99035.19
2018-12-09T14:57:02.842Z,99055.45
2018-12-09T14:59:31.004Z,99049.27
2018-12-09T15:01:59.308Z,99058.80
2018-12-09T15:04:27.453Z,99053.55
2018-12-09T15:06:55.624Z,99069.05
2018-12-09T15:09:23.885Z,99071.98
2018-12-09T15:11:52.212Z,99069.25
2018-12-09T15:14:20.479Z,99078.16
2018-12-09T15:16:48.689Z,99080.86
2018-12-09T15:19:16.828Z,99085.88
2018-12-09T15:21:44.997Z,99083.83
2018-12-09T15:24:13.197Z,99089.33
2018-12-09T15:26:41.570Z,99106.34
2018-12-09T15:29:10.119Z,99111.36
2018-12-09T15:31:38.500Z,99112.93
2018-12-09T15:34:06.887Z,99116.38
2018-12-09T15:36:35.076Z,99096.39
2018-12-09T15:39:05.164Z,99099.19
2018-12-09T15:41:33.473Z,99103.81
2018-12-09T15:44:01.767Z,99113.67
2018-12-09T15:46:30.015Z,99107.61
2018-12-09T15:48:58.225Z,99121.05
2018-12-09T15:51:26.456Z,99115.63
2018-12-09T15:53:55.905Z,99109.63
2018-12-09T15:56:24.252Z,99107.52
2018-12-09T15:58:52.457Z,99114.28
2018-12-09T16:01:20.605Z,99112.93
2018-12-09T16:03:48.788Z,99124.41
2018-12-09T16:06:17.064Z,99133.01
2018-12-09T16:08:45.344Z,99137.45
2018-12-09T16:11:13.504Z,99140.77
2018-12-09T16:13:41.653Z,99154.66
2018-12-09T16:16:10.150Z,99165.61
2018-12-09T16:18:38.568Z,99175.95
2018-12-09T16:21:06.932Z,99183.59
2018-12-09T16:23:35.321Z,99196.13
2018-12-09T16:26:03.645Z,99206.86
2018-12-09T16:28:31.985Z,99212.58
2018-12-09T16:31:00.445Z,99229.68
2018-12-09T16:33:28.950Z,99232.22
2018-12-09T16:35:57.421Z,99239.82
2018-12-09T16:38:25.777Z,99238.37
2018-12-09T16:40:54.203Z,99241.39
2018-12-09T16:43:22.857Z,99244.97
2018-12-09T16:45:51.232Z,99258.11
2018-12-09T16:48:19.683Z,99253.48
2018-12-09T16:50:48.132Z,99262.95
2018-12-09T16:53:16.406Z,99274.28
2018-12-09T16:55:44.658Z,99281.12
2018-12-09T16:58:12.817Z,99290.13
2018-12-09T17:00:41.380Z,99286.28
2018-12-09T17:03:09.798Z,99290.69
2018-12-09T17:05:37.996Z,99298.33
2018-12-09T17:08:06.256Z,99307.45
2018-12-09T17:10:34.644Z,99311.77
2018-12-09T17:13:03.119Z,99320.94
2018-12-09T17:15:31.292Z,99338.17
2018-12-09T17:17:59.555Z,99351.59
2018-12-09T17:20:28.069Z,99352.45
2018-12-09T17:22:56.528Z,99360.66
2018-12-09T17:25:25.101Z,99372.17
2018-12-09T17:27:53.289Z,99372.62
2018-12-09T17:30:21.578Z,99393.16
2018-12-09T17:32:49.808Z,99393.00
2018-12-09T17:35:18.016Z,99385.97
2018-12-09T17:37:46.735Z,99405.34
2018-12-09T17:40:14.960Z,99402.92
2018-12-09T17:42:43.341Z,99397.03
2018-12-09T17:45:11.828Z,99395.59
2018-12-09T17:47:40.060Z,99408.72
2018-12-09T17:50:08.613Z,99411.43
2018-12-09T17:52:36.756Z,99419.46
2018-12-09T17:55:05.164Z,99428.73
2018-12-09T17:57:33.428Z,99428.22
2018-12-09T18:00:01.598Z,99439.31
2018-12-09T18:02:29.902Z,99433.34
2018-12-09T18:04:58.041Z,99442.28
2018-12-09T18:07:26.229Z,99446.61
2018-12-09T18:09:54.456Z,99443.58
2018-12-09T18:12:22.991Z,99432.16
2018-12-09T18:14:51.256Z,99448.46
2018-12-09T18:17:19.501Z,99447.44
2018-12-09T18:19:47.697Z,99455.75
2018-12-09T18:22:15.944Z,99464.98
2018-12-09T18:24:44.127Z,99479.91
2018-12-09T18:27:12.322Z,99489.19
2018-12-09T18:29:40.614Z,99481.31
2018-12-09T18:32:09.273Z,99493.61
2018-12-09T18:34:37.766Z,99486.22
2018-12-09T18:37:06.151Z,99501.30
2018-12-09T18:39:34.457Z,99504.14
2018-12-09T18:42:02.889Z,99513.37
2018-12-09T18:44:31.100Z,99491.12
2018-12-09T18:46:59.330Z,99510.70
2018-12-09T18:49:27.703Z,99523.20
2018-12-09T18:51:55.949Z,99528.14
2018-12-09T18:54:24.145Z,99522.05
2018-12-09T18:56:52.326Z,99534.50
2018-12-09T18:59:20.518Z,99539.92
2018-12-09T19:01:48.837Z,99549.20
2018-12-09T19:04:17.133Z,99553.25
2018-12-09T19:06:45.426Z,99563.61
2018-12-09T19:09:13.810Z,99571.65
2018-12-09T19:11:42.085Z,99575.31
2018-12-09T19:14:10.281Z,99563.84
2018-12-09T19:16:38.498Z,99574.27
2018-12-09T19:19:06.741Z,99569.42
2018-12-09T19:21:35.018Z,99575.23
2018-12-09T19:24:03.274Z,99586.93
2018-12-09T19:26:31.523Z,99590.59
2018-12-09T19:28:59.803Z,99596.80
2018-12-09T19:31:28.043Z,99599.42
2018-12-09T19:33:56.323Z,99605.72
2018-12-09T19:36:25.457Z,99615.00
2018-12-09T19:38:53.696Z,99614.05
2018-12-09T19:41:21.933Z,99619.30
2018-12-09T19:43:50.158Z,99626.87
2018-12-09T19:46:18.346Z,99631.48
2018-12-09T19:48:46.578Z,99638.73
2018-12-09T19:51:14.886Z,99650.44
2018-12-09T19:53:43.236Z,99645.82
2018-12-09T19:56:11.522Z,99661.19
2018-12-09T19:58:39.849Z,99662.83
2018-12-09T20:01:08.104Z,99682.58
2018-12-09T20:03:36.426Z,99689.82
2018-12-09T20:06:04.676Z,99702.62
2018-12-09T20:08:33.050Z,99708.70
2018-12-09T20:11:01.375Z,99721.44
2018-12-09T20:13:29.593Z,99725.89
2018-12-09T20:15:57.821Z,99729.48
2018-12-09T20:18:26.063Z,99730.51
2018-12-09T20:20:56.041Z,99721.51
2018-12-09T20:23:24.492Z,99742.69
2018-12-09T20:25:52.709Z,99738.62
2018-12-09T20:28:20.911Z,99743.09
2018-12-09T20:30:49.297Z,99753.77
2018-12-09T20:33:17.525Z,99763.64
2018-12-09T20:35:45.746Z,99766.17
2018-12-09T20:38:13.968Z,99777.00
2018-12-09T20:40:42.483Z,99776.59
2018-12-09T20:43:10.774Z,99767.70
2018-12-09T20:45:39.142Z,99785.20
2018-12-09T20:48:13.351Z,99788.30
2018-12-09T20:50:37.620Z,99794.59
2018-12-09T20:53:05.822Z,99800.02
2018-12-09T20:55:34.053Z,99796.75
2018-12-09T20:58:02.374Z,99799.86
2018-12-09T21:00:30.750Z,99797.63
2018-12-09T21:02:58.986Z,99808.14
2018-12-09T21:05:27.266Z,99816.19
2018-12-09T21:07:55.469Z,99816.98
2018-12-09T21:10:23.697Z,99820.58
2018-12-09T21:12:51.889Z,99834.98
2018-12-09T21:15:20.241Z,99822.80
2018-12-09T21:17:48.457Z,99821.93
2018-12-09T21:20:16.706Z,99821.93
2018-12-09T21:22:45.117Z,99835.47
2018-12-09T21:25:13.495Z,99845.82
2018-12-09T21:27:41.675Z,99839.93
2018-12-09T21:30:10.071Z,99858.88
2018-12-09T21:32:38.426Z,99861.99
2018-12-09T21:35:07.201Z,99840.73
2018-12-09T21:37:35.398Z,99872.50
2018-12-09T21:40:03.877Z,99868.03
2018-12-09T21:42:32.218Z,99886.36
2018-12-09T21:45:00.399Z,99889.95
2018-12-09T21:47:28.605Z,99895.36
2018-12-09T21:49:56.808Z,99905.68
2018-12-09T21:52:25.141Z,99910.15
2018-12-09T21:54:53.338Z,99920.36
2018-12-09T21:57:21.942Z,99936.20
2018-12-09T21:59:50.178Z,99947.89
2018-12-09T22:02:18.499Z,99943.94
2018-12-09T22:04:46.678Z,99965.73
2018-12-09T22:07:14.901Z,99966.22
2018-12-09T22:09:43.084Z,99964.69
2018-12-09T22:12:11.282Z,99964.52
2018-12-09T22:14:39.577Z,99978.53
2018-12-09T22:17:07.774Z,99982.19
2018-12-09T22:19:35.985Z,99993.11
2018-12-09T22:22:04.207Z,100015.48
2018-12-09T22:24:32.404Z,100005.91
2018-12-09T22:27:00.662Z,100006.12
2018-12-09T22:29:28.865Z,100013.63
2018-12-09T22:31:57.065Z,100022.49
2018-12-09T22:34:25.246Z,100020.52
2018-12-09T22:36:53.625Z,100032.89
2018-12-09T22:39:21.842Z,100032.02
2018-12-09T22:41:50.073Z,100028.12
2018-12-09T22:44:18.280Z,100036.77
2018-12-09T22:46:46.490Z,100034.67
2018-12-09T22:49:14.794Z,100043.14
2018-12-09T22:51:43.134Z,100048.77
2018-12-09T22:54:11.341Z,100050.79
2018-12-09T22:56:39.570Z,100065.91
2018-12-09T22:59:07.793Z,100061.38
2018-12-09T23:01:36.071Z,100078.14
2018-12-09T23:04:04.369Z,100066.45
2018-12-09T23:06:32.706Z,100069.66
2018-12-09T23:09:00.905Z,100069.78
2018-12-09T23:11:29.213Z,100066.55
2018-12-09T23:13:57.509Z,100066.38
2018-12-09T23:16:25.782Z,100070.82
2018-12-09T23:18:54.149Z,100074.66
2018-12-09T23:21:22.357Z,100070.94
2018-12-09T23:23:50.582Z,100076.23
2018-12-09T23:26:18.802Z,100069.18
2018-12-09T23:28:47.069Z,100077.52
2018-12-09T23:31:15.269Z,100082.61
2018-12-09T23:33:43.469Z,100088.23
2018-12-09T23:36:11.705Z,100086.70
2018-12-09T23:38:39.919Z,100103.16
2018-12-09T23:41:08.145Z,100105.55
2018-12-09T23:43:36.345Z,100096.55
2018-12-09T23:46:04.568Z,100100.85
2018-12-09T23:48:32.767Z,100101.66
2018-12-09T23:51:01.173Z,100110.44
2018-12-09T23:53:29.365Z,100107.74
2018-12-09T23:55:57.631Z,100112.20
2018-12-09T23:58:25.837Z,100111.80
